sensor_id;sensor_type;location;lat;lon;timestamp;temperature;humidity
74822;DHT22;63353;48.702;8.884;2022-12-29T00:01:49;7.00;99.90
74822;DHT22;63353;48.702;8.884;2022-12-29T00:04:15;7.00;99.90
74822;DHT22;63353;48.702;8.884;2022-12-29T00:06:43;6.90;99.90
74822;DHT22;63353;48.702;8.884;2022-12-29T00:09:11;6.90;99.90
74822;DHT22;63353;48.702;8.884;2022-12-29T00:11:46;6.80;99.90
74822;DHT22;63353;48.702;8.884;2022-12-29T00:14:12;6.70;99.90
74822;DHT22;63353;48.702;8.884;2022-12-29T00:16:57;6.80;99.90
74822;DHT22;63353;48.702;8.884;2022-12-29T00:19:23;6.60;99.90
74822;DHT22;63353;48.702;8.884;2022-12-29T00:22:19;6.50;99.90
74822;DHT22;63353;48.702;8.884;2022-12-29T00:25:05;6.60;99.90
74822;DHT22;63353;48.702;8.884;2022-12-29T00:27:49;6.60;99.90
74822;DHT22;63353;48.702;8.884;2022-12-29T00:30:36;6.70;99.90
74822;DHT22;63353;48.702;8.884;2022-12-29T00:33:25;6.80;99.90
74822;DHT22;63353;48.702;8.884;2022-12-29T00:39:24;6.80;99.90
74822;DHT22;63353;48.702;8.884;2022-12-29T00:42:09;6.90;99.90
74822;DHT22;63353;48.702;8.884;2022-12-29T00:44:56;6.80;99.90
74822;DHT22;63353;48.702;8.884;2022-12-29T00:47:25;6.80;99.90
74822;DHT22;63353;48.702;8.884;2022-12-29T00:49:50;6.90;99.90
74822;DHT22;63353;48.702;8.884;2022-12-29T00:52:16;7.10;99.90
74822;DHT22;63353;48.702;8.884;2022-12-29T00:54:48;7.10;99.90
74822;DHT22;63353;48.702;8.884;2022-12-29T00:57:13;7.30;99.90
74822;DHT22;63353;48.702;8.884;2022-12-29T00:59:45;7.50;99.90
74822;DHT22;63353;48.702;8.884;2022-12-29T01:02:13;7.40;99.90
74822;DHT22;63353;48.702;8.884;2022-12-29T01:04:39;7.50;99.90
74822;DHT22;63353;48.702;8.884;2022-12-29T01:07:05;7.60;99.90
74822;DHT22;63353;48.702;8.884;2022-12-29T01:09:31;7.80;99.90
74822;DHT22;63353;48.702;8.884;2022-12-29T01:12:24;7.80;99.90
74822;DHT22;63353;48.702;8.884;2022-12-29T01:15:12;7.80;99.90
74822;DHT22;63353;48.702;8.884;2022-12-29T01:17:44;7.70;99.90
74822;DHT22;63353;48.702;8.884;2022-12-29T01:20:13;7.70;99.90
74822;DHT22;63353;48.702;8.884;2022-12-29T01:22:39;7.70;99.90
74822;DHT22;63353;48.702;8.884;2022-12-29T01:25:08;7.70;99.90
74822;DHT22;63353;48.702;8.884;2022-12-29T01:27:34;7.80;99.90
74822;DHT22;63353;48.702;8.884;2022-12-29T01:30:03;7.60;99.90
74822;DHT22;63353;48.702;8.884;2022-12-29T01:32:32;7.70;99.90
74822;DHT22;63353;48.702;8.884;2022-12-29T01:35:00;7.60;99.90
74822;DHT22;63353;48.702;8.884;2022-12-29T01:37:26;7.70;99.90
74822;DHT22;63353;48.702;8.884;2022-12-29T01:39:52;7.70;99.90
74822;DHT22;63353;48.702;8.884;2022-12-29T01:42:19;7.80;99.90
74822;DHT22;63353;48.702;8.884;2022-12-29T01:44:57;7.70;99.90
74822;DHT22;63353;48.702;8.884;2022-12-29T01:47:36;7.70;99.90
74822;DHT22;63353;48.702;8.884;2022-12-29T01:53:15;7.70;99.90
74822;DHT22;63353;48.702;8.884;2022-12-29T01:55:52;7.80;99.90
74822;DHT22;63353;48.702;8.884;2022-12-29T01:58:35;8.00;99.90
74822;DHT22;63353;48.702;8.884;2022-12-29T02:01:10;7.90;99.90
74822;DHT22;63353;48.702;8.884;2022-12-29T02:03:48;7.90;99.90
74822;DHT22;63353;48.702;8.884;2022-12-29T02:08:50;7.80;99.90
74822;DHT22;63353;48.702;8.884;2022-12-29T02:11:28;7.80;99.90
74822;DHT22;63353;48.702;8.884;2022-12-29T02:13:58;7.90;99.90
74822;DHT22;63353;48.702;8.884;2022-12-29T02:16:39;8.00;99.90
74822;DHT22;63353;48.702;8.884;2022-12-29T02:30:42;8.10;99.90
74822;DHT22;63353;48.702;8.884;2022-12-29T02:33:37;8.20;99.90
74822;DHT22;63353;48.702;8.884;2022-12-29T02:47:16;8.40;99.90
74822;DHT22;63353;48.702;8.884;2022-12-29T02:49:59;8.50;99.90
74822;DHT22;63353;48.702;8.884;2022-12-29T02:52:57;8.50;99.90
74822;DHT22;63353;48.702;8.884;2022-12-29T02:55:26;8.40;99.90
74822;DHT22;63353;48.702;8.884;2022-12-29T02:58:26;8.30;99.90
74822;DHT22;63353;48.702;8.884;2022-12-29T03:03:26;8.60;99.90
74822;DHT22;63353;48.702;8.884;2022-12-29T03:09:21;8.90;99.90
74822;DHT22;63353;48.702;8.884;2022-12-29T03:12:16;9.10;99.90
74822;DHT22;63353;48.702;8.884;2022-12-29T03:14:59;9.30;99.90
74822;DHT22;63353;48.702;8.884;2022-12-29T03:17:57;9.50;99.90
74822;DHT22;63353;48.702;8.884;2022-12-29T03:23:31;9.50;99.90
74822;DHT22;63353;48.702;8.884;2022-12-29T03:26:04;9.40;99.90
74822;DHT22;63353;48.702;8.884;2022-12-29T03:28:40;9.50;99.90
74822;DHT22;63353;48.702;8.884;2022-12-29T03:31:09;9.60;99.90
74822;DHT22;63353;48.702;8.884;2022-12-29T03:33:38;9.60;99.90
74822;DHT22;63353;48.702;8.884;2022-12-29T03:36:12;9.70;99.90
74822;DHT22;63353;48.702;8.884;2022-12-29T03:38:52;9.80;99.90
74822;DHT22;63353;48.702;8.884;2022-12-29T03:41:26;9.70;99.90
74822;DHT22;63353;48.702;8.884;2022-12-29T03:43:53;9.70;99.90
74822;DHT22;63353;48.702;8.884;2022-12-29T03:46:22;9.60;99.90
74822;DHT22;63353;48.702;8.884;2022-12-29T03:48:53;9.50;99.90
74822;DHT22;63353;48.702;8.884;2022-12-29T03:51:22;9.50;99.90
74822;DHT22;63353;48.702;8.884;2022-12-29T03:53:48;9.40;99.90
74822;DHT22;63353;48.702;8.884;2022-12-29T03:56:16;9.40;99.90
74822;DHT22;63353;48.702;8.884;2022-12-29T03:58:42;9.30;99.90
74822;DHT22;63353;48.702;8.884;2022-12-29T04:01:16;9.30;99.90
74822;DHT22;63353;48.702;8.884;2022-12-29T04:03:48;9.30;99.90
74822;DHT22;63353;48.702;8.884;2022-12-29T04:06:17;9.10;99.90
74822;DHT22;63353;48.702;8.884;2022-12-29T04:08:45;9.20;99.90
74822;DHT22;63353;48.702;8.884;2022-12-29T04:11:14;9.10;99.90
74822;DHT22;63353;48.702;8.884;2022-12-29T04:13:40;9.10;99.90
74822;DHT22;63353;48.702;8.884;2022-12-29T04:16:09;8.90;99.90
74822;DHT22;63353;48.702;8.884;2022-12-29T04:18:41;9.00;99.90
74822;DHT22;63353;48.702;8.884;2022-12-29T04:21:15;8.90;99.90
74822;DHT22;63353;48.702;8.884;2022-12-29T04:23:41;9.00;99.90
74822;DHT22;63353;48.702;8.884;2022-12-29T04:26:21;9.20;99.90
74822;DHT22;63353;48.702;8.884;2022-12-29T04:28:50;9.30;99.90
74822;DHT22;63353;48.702;8.884;2022-12-29T04:31:15;9.30;99.90
74822;DHT22;63353;48.702;8.884;2022-12-29T04:33:41;9.30;99.90
74822;DHT22;63353;48.702;8.884;2022-12-29T04:36:10;9.40;99.90
74822;DHT22;63353;48.702;8.884;2022-12-29T04:38:41;9.40;99.90
74822;DHT22;63353;48.702;8.884;2022-12-29T04:41:10;9.60;99.90
74822;DHT22;63353;48.702;8.884;2022-12-29T04:43:35;9.50;99.90
74822;DHT22;63353;48.702;8.884;2022-12-29T04:46:01;9.50;99.90
74822;DHT22;63353;48.702;8.884;2022-12-29T04:48:33;9.60;99.90
74822;DHT22;63353;48.702;8.884;2022-12-29T04:51:01;9.60;99.90
74822;DHT22;63353;48.702;8.884;2022-12-29T04:53:30;9.70;99.90
74822;DHT22;63353;48.702;8.884;2022-12-29T04:55:56;9.70;99.90
74822;DHT22;63353;48.702;8.884;2022-12-29T04:58:22;9.80;99.90
74822;DHT22;63353;48.702;8.884;2022-12-29T05:00:56;9.70;99.90
74822;DHT22;63353;48.702;8.884;2022-12-29T05:03:25;9.80;99.90
74822;DHT22;63353;48.702;8.884;2022-12-29T05:05:53;9.90;99.90
74822;DHT22;63353;48.702;8.884;2022-12-29T05:08:19;9.80;99.90
74822;DHT22;63353;48.702;8.884;2022-12-29T05:10:50;9.70;99.90
74822;DHT22;63353;48.702;8.884;2022-12-29T05:13:18;9.80;99.90
74822;DHT22;63353;48.702;8.884;2022-12-29T05:15:57;9.80;99.90
74822;DHT22;63353;48.702;8.884;2022-12-29T05:18:22;9.80;99.90
74822;DHT22;63353;48.702;8.884;2022-12-29T05:20:54;9.90;99.90
74822;DHT22;63353;48.702;8.884;2022-12-29T05:23:28;9.90;99.90
74822;DHT22;63353;48.702;8.884;2022-12-29T05:26:03;9.90;99.90
74822;DHT22;63353;48.702;8.884;2022-12-29T05:28:28;10.00;99.90
74822;DHT22;63353;48.702;8.884;2022-12-29T05:30:54;9.90;99.90
74822;DHT22;63353;48.702;8.884;2022-12-29T05:33:19;9.90;99.90
74822;DHT22;63353;48.702;8.884;2022-12-29T05:35:45;10.10;99.90
74822;DHT22;63353;48.702;8.884;2022-12-29T05:38:14;10.00;99.90
74822;DHT22;63353;48.702;8.884;2022-12-29T05:40:40;10.00;99.90
74822;DHT22;63353;48.702;8.884;2022-12-29T05:43:08;10.00;99.90
74822;DHT22;63353;48.702;8.884;2022-12-29T05:45:39;10.10;99.90
74822;DHT22;63353;48.702;8.884;2022-12-29T05:48:05;10.10;99.90
74822;DHT22;63353;48.702;8.884;2022-12-29T05:50:31;10.10;99.90
74822;DHT22;63353;48.702;8.884;2022-12-29T05:53:02;10.00;99.90
74822;DHT22;63353;48.702;8.884;2022-12-29T05:55:37;9.80;99.90
74822;DHT22;63353;48.702;8.884;2022-12-29T05:58:06;9.90;99.90
74822;DHT22;63353;48.702;8.884;2022-12-29T06:00:41;9.90;99.90
74822;DHT22;63353;48.702;8.884;2022-12-29T06:03:06;9.80;99.90
74822;DHT22;63353;48.702;8.884;2022-12-29T06:05:32;9.70;99.90
74822;DHT22;63353;48.702;8.884;2022-12-29T06:08:06;9.70;99.90
74822;DHT22;63353;48.702;8.884;2022-12-29T06:10:32;9.70;99.90
74822;DHT22;63353;48.702;8.884;2022-12-29T06:13:04;9.80;99.90
74822;DHT22;63353;48.702;8.884;2022-12-29T06:15:31;9.80;99.90
74822;DHT22;63353;48.702;8.884;2022-12-29T06:17:57;9.80;99.90
74822;DHT22;63353;48.702;8.884;2022-12-29T06:20:29;9.90;99.90
74822;DHT22;63353;48.702;8.884;2022-12-29T06:22:55;9.90;99.90
74822;DHT22;63353;48.702;8.884;2022-12-29T06:25:20;9.80;99.90
74822;DHT22;63353;48.702;8.884;2022-12-29T06:27:46;9.80;99.90
74822;DHT22;63353;48.702;8.884;2022-12-29T06:30:12;9.90;99.90
74822;DHT22;63353;48.702;8.884;2022-12-29T06:32:44;9.90;99.90
74822;DHT22;63353;48.702;8.884;2022-12-29T06:35:17;10.00;99.90
74822;DHT22;63353;48.702;8.884;2022-12-29T06:37:42;9.90;99.90
74822;DHT22;63353;48.702;8.884;2022-12-29T06:40:11;9.80;99.90
74822;DHT22;63353;48.702;8.884;2022-12-29T06:42:40;9.80;99.90
74822;DHT22;63353;48.702;8.884;2022-12-29T06:45:09;9.80;99.90
74822;DHT22;63353;48.702;8.884;2022-12-29T06:47:35;9.70;99.90
74822;DHT22;63353;48.702;8.884;2022-12-29T06:50:01;9.50;99.90
74822;DHT22;63353;48.702;8.884;2022-12-29T06:52:39;9.60;99.90
74822;DHT22;63353;48.702;8.884;2022-12-29T06:55:05;9.60;99.90
74822;DHT22;63353;48.702;8.884;2022-12-29T06:57:31;9.60;99.90
74822;DHT22;63353;48.702;8.884;2022-12-29T07:00:00;9.70;99.90
74822;DHT22;63353;48.702;8.884;2022-12-29T07:02:28;9.50;99.90
74822;DHT22;63353;48.702;8.884;2022-12-29T07:05:00;9.40;99.90
74822;DHT22;63353;48.702;8.884;2022-12-29T07:07:28;9.30;99.90
74822;DHT22;63353;48.702;8.884;2022-12-29T07:10:03;9.20;99.90
74822;DHT22;63353;48.702;8.884;2022-12-29T07:12:40;9.30;99.90
74822;DHT22;63353;48.702;8.884;2022-12-29T07:15:09;9.40;99.90
74822;DHT22;63353;48.702;8.884;2022-12-29T07:17:41;9.60;99.90
74822;DHT22;63353;48.702;8.884;2022-12-29T07:20:08;9.50;99.90
74822;DHT22;63353;48.702;8.884;2022-12-29T07:22:40;9.50;99.90
74822;DHT22;63353;48.702;8.884;2022-12-29T07:25:09;9.40;99.90
74822;DHT22;63353;48.702;8.884;2022-12-29T07:27:40;9.50;99.90
74822;DHT22;63353;48.702;8.884;2022-12-29T07:30:06;9.60;99.90
74822;DHT22;63353;48.702;8.884;2022-12-29T07:32:44;9.70;99.90
74822;DHT22;63353;48.702;8.884;2022-12-29T07:35:12;9.70;99.90
74822;DHT22;63353;48.702;8.884;2022-12-29T07:37:41;9.70;99.90
74822;DHT22;63353;48.702;8.884;2022-12-29T07:40:14;9.70;99.90
74822;DHT22;63353;48.702;8.884;2022-12-29T07:42:42;9.90;99.90
74822;DHT22;63353;48.702;8.884;2022-12-29T07:45:08;9.90;99.90
74822;DHT22;63353;48.702;8.884;2022-12-29T07:47:34;9.90;99.90
74822;DHT22;63353;48.702;8.884;2022-12-29T07:50:03;9.90;99.90
74822;DHT22;63353;48.702;8.884;2022-12-29T07:52:29;10.00;99.90
74822;DHT22;63353;48.702;8.884;2022-12-29T07:54:55;9.90;99.90
74822;DHT22;63353;48.702;8.884;2022-12-29T07:57:23;10.00;99.90
74822;DHT22;63353;48.702;8.884;2022-12-29T07:59:55;10.00;99.90
74822;DHT22;63353;48.702;8.884;2022-12-29T08:02:20;10.00;99.90
74822;DHT22;63353;48.702;8.884;2022-12-29T08:04:52;10.00;99.90
74822;DHT22;63353;48.702;8.884;2022-12-29T08:07:21;10.10;99.90
74822;DHT22;63353;48.702;8.884;2022-12-29T08:09:49;10.10;99.90
74822;DHT22;63353;48.702;8.884;2022-12-29T08:12:15;10.30;99.90
74822;DHT22;63353;48.702;8.884;2022-12-29T08:14:41;10.30;99.90
74822;DHT22;63353;48.702;8.884;2022-12-29T08:17:06;10.40;99.90
74822;DHT22;63353;48.702;8.884;2022-12-29T08:19:32;10.50;99.90
74822;DHT22;63353;48.702;8.884;2022-12-29T08:21:57;10.60;99.90
74822;DHT22;63353;48.702;8.884;2022-12-29T08:24:23;10.60;99.90
74822;DHT22;63353;48.702;8.884;2022-12-29T08:26:49;10.50;99.90
74822;DHT22;63353;48.702;8.884;2022-12-29T08:29:21;10.60;99.90
74822;DHT22;63353;48.702;8.884;2022-12-29T08:31:47;10.60;99.90
74822;DHT22;63353;48.702;8.884;2022-12-29T08:34:16;10.60;99.90
74822;DHT22;63353;48.702;8.884;2022-12-29T08:36:41;10.70;99.90
74822;DHT22;63353;48.702;8.884;2022-12-29T08:39:10;10.60;99.90
74822;DHT22;63353;48.702;8.884;2022-12-29T08:41:38;10.60;99.90
74822;DHT22;63353;48.702;8.884;2022-12-29T08:44:04;10.60;99.90
74822;DHT22;63353;48.702;8.884;2022-12-29T08:46:30;10.70;99.90
74822;DHT22;63353;48.702;8.884;2022-12-29T08:48:56;10.70;99.90
74822;DHT22;63353;48.702;8.884;2022-12-29T08:51:21;10.60;99.90
74822;DHT22;63353;48.702;8.884;2022-12-29T08:53:47;10.70;99.90
74822;DHT22;63353;48.702;8.884;2022-12-29T08:56:20;10.60;99.90
74822;DHT22;63353;48.702;8.884;2022-12-29T08:58:46;10.60;99.90
74822;DHT22;63353;48.702;8.884;2022-12-29T09:01:14;10.50;99.90
74822;DHT22;63353;48.702;8.884;2022-12-29T09:03:40;10.50;99.90
74822;DHT22;63353;48.702;8.884;2022-12-29T09:06:08;10.60;99.90
74822;DHT22;63353;48.702;8.884;2022-12-29T09:08:34;10.70;99.90
74822;DHT22;63353;48.702;8.884;2022-12-29T09:11:16;10.80;99.90
74822;DHT22;63353;48.702;8.884;2022-12-29T09:13:47;10.80;99.90
74822;DHT22;63353;48.702;8.884;2022-12-29T09:16:13;10.90;99.90
74822;DHT22;63353;48.702;8.884;2022-12-29T09:18:40;11.00;99.90
74822;DHT22;63353;48.702;8.884;2022-12-29T09:21:06;11.10;99.90
74822;DHT22;63353;48.702;8.884;2022-12-29T09:23:33;11.10;99.90
74822;DHT22;63353;48.702;8.884;2022-12-29T09:25:59;11.30;99.90
74822;DHT22;63353;48.702;8.884;2022-12-29T09:28:30;11.30;99.90
74822;DHT22;63353;48.702;8.884;2022-12-29T09:30:57;11.40;99.90
74822;DHT22;63353;48.702;8.884;2022-12-29T09:33:23;11.50;99.90
74822;DHT22;63353;48.702;8.884;2022-12-29T09:35:57;11.40;99.90
74822;DHT22;63353;48.702;8.884;2022-12-29T09:38:24;11.40;99.90
74822;DHT22;63353;48.702;8.884;2022-12-29T09:41:05;11.50;99.90
74822;DHT22;63353;48.702;8.884;2022-12-29T09:46:38;11.40;99.90
74822;DHT22;63353;48.702;8.884;2022-12-29T09:51:53;11.40;99.90
74822;DHT22;63353;48.702;8.884;2022-12-29T09:54:43;11.40;99.90
74822;DHT22;63353;48.702;8.884;2022-12-29T10:00:32;11.50;99.90
74822;DHT22;63353;48.702;8.884;2022-12-29T10:03:10;11.50;99.90
74822;DHT22;63353;48.702;8.884;2022-12-29T10:11:47;11.50;99.90
74822;DHT22;63353;48.702;8.884;2022-12-29T10:17:48;11.30;99.90
74822;DHT22;63353;48.702;8.884;2022-12-29T10:26:01;11.50;99.90
74822;DHT22;63353;48.702;8.884;2022-12-29T10:28:44;11.50;99.90
74822;DHT22;63353;48.702;8.884;2022-12-29T10:31:23;11.50;99.90
74822;DHT22;63353;48.702;8.884;2022-12-29T10:33:53;11.50;99.90
74822;DHT22;63353;48.702;8.884;2022-12-29T10:36:28;11.50;99.90
74822;DHT22;63353;48.702;8.884;2022-12-29T10:39:28;11.60;99.90
74822;DHT22;63353;48.702;8.884;2022-12-29T10:42:11;11.90;99.90
74822;DHT22;63353;48.702;8.884;2022-12-29T10:44:39;12.10;99.90
74822;DHT22;63353;48.702;8.884;2022-12-29T10:47:12;12.20;99.90
74822;DHT22;63353;48.702;8.884;2022-12-29T10:49:42;12.20;99.90
74822;DHT22;63353;48.702;8.884;2022-12-29T10:52:12;12.10;99.90
74822;DHT22;63353;48.702;8.884;2022-12-29T10:54:46;12.10;99.90
74822;DHT22;63353;48.702;8.884;2022-12-29T10:57:38;12.20;99.90
74822;DHT22;63353;48.702;8.884;2022-12-29T11:00:19;12.00;99.90
74822;DHT22;63353;48.702;8.884;2022-12-29T11:09:07;11.70;99.90
74822;DHT22;63353;48.702;8.884;2022-12-29T11:11:36;11.60;99.90
74822;DHT22;63353;48.702;8.884;2022-12-29T11:14:29;11.50;99.90
74822;DHT22;63353;48.702;8.884;2022-12-29T11:16:59;11.60;99.90
74822;DHT22;63353;48.702;8.884;2022-12-29T11:19:31;11.60;99.90
74822;DHT22;63353;48.702;8.884;2022-12-29T11:22:21;11.50;99.90
74822;DHT22;63353;48.702;8.884;2022-12-29T11:24:48;11.40;99.90
74822;DHT22;63353;48.702;8.884;2022-12-29T11:27:16;11.30;99.90
74822;DHT22;63353;48.702;8.884;2022-12-29T11:29:43;11.20;99.90
74822;DHT22;63353;48.702;8.884;2022-12-29T11:32:18;10.80;99.90
74822;DHT22;63353;48.702;8.884;2022-12-29T11:34:44;10.60;99.90
74822;DHT22;63353;48.702;8.884;2022-12-29T11:37:17;10.60;99.90
74822;DHT22;63353;48.702;8.884;2022-12-29T11:42:36;10.50;99.90
74822;DHT22;63353;48.702;8.884;2022-12-29T11:45:15;10.50;99.90
74822;DHT22;63353;48.702;8.884;2022-12-29T11:47:45;10.50;99.90
74822;DHT22;63353;48.702;8.884;2022-12-29T11:50:31;10.50;99.90
74822;DHT22;63353;48.702;8.884;2022-12-29T11:55:26;10.60;99.90
74822;DHT22;63353;48.702;8.884;2022-12-29T11:57:53;10.60;99.90
74822;DHT22;63353;48.702;8.884;2022-12-29T12:00:22;10.70;99.90
74822;DHT22;63353;48.702;8.884;2022-12-29T12:03:18;10.60;99.90
74822;DHT22;63353;48.702;8.884;2022-12-29T12:05:54;10.70;99.90
74822;DHT22;63353;48.702;8.884;2022-12-29T12:08:44;10.70;99.90
74822;DHT22;63353;48.702;8.884;2022-12-29T12:11:17;10.60;99.90
74822;DHT22;63353;48.702;8.884;2022-12-29T12:14:00;10.60;99.90
74822;DHT22;63353;48.702;8.884;2022-12-29T12:16:37;10.60;99.90
74822;DHT22;63353;48.702;8.884;2022-12-29T12:19:16;10.50;99.90
74822;DHT22;63353;48.702;8.884;2022-12-29T12:21:50;10.60;99.90
74822;DHT22;63353;48.702;8.884;2022-12-29T12:24:40;10.60;99.90
74822;DHT22;63353;48.702;8.884;2022-12-29T12:27:37;10.60;99.90
74822;DHT22;63353;48.702;8.884;2022-12-29T12:30:15;10.60;99.90
74822;DHT22;63353;48.702;8.884;2022-12-29T12:52:02;11.20;99.90
74822;DHT22;63353;48.702;8.884;2022-12-29T13:00:09;12.00;99.90
74822;DHT22;63353;48.702;8.884;2022-12-29T13:03:09;11.80;99.90
74822;DHT22;63353;48.702;8.884;2022-12-29T13:08:37;11.80;99.90
74822;DHT22;63353;48.702;8.884;2022-12-29T13:11:44;12.10;99.90
74822;DHT22;63353;48.702;8.884;2022-12-29T13:17:09;11.60;99.90
74822;DHT22;63353;48.702;8.884;2022-12-29T13:22:47;11.10;99.90
74822;DHT22;63353;48.702;8.884;2022-12-29T13:36:24;10.80;99.90
74822;DHT22;63353;48.702;8.884;2022-12-29T13:41:30;10.80;99.90
74822;DHT22;63353;48.702;8.884;2022-12-29T13:43:57;10.80;99.90
74822;DHT22;63353;48.702;8.884;2022-12-29T13:46:29;10.70;99.90
74822;DHT22;63353;48.702;8.884;2022-12-29T13:49:02;10.60;99.90
74822;DHT22;63353;48.702;8.884;2022-12-29T13:51:32;10.60;99.90
74822;DHT22;63353;48.702;8.884;2022-12-29T13:54:23;10.50;99.90
74822;DHT22;63353;48.702;8.884;2022-12-29T13:57:15;10.60;99.90
74822;DHT22;63353;48.702;8.884;2022-12-29T14:02:33;10.70;99.90
74822;DHT22;63353;48.702;8.884;2022-12-29T14:07:57;11.00;99.90
74822;DHT22;63353;48.702;8.884;2022-12-29T14:13:19;10.70;99.90
74822;DHT22;63353;48.702;8.884;2022-12-29T14:15:52;10.70;99.90
74822;DHT22;63353;48.702;8.884;2022-12-29T14:18:21;10.60;99.90
74822;DHT22;63353;48.702;8.884;2022-12-29T14:23:47;11.30;99.90
74822;DHT22;63353;48.702;8.884;2022-12-29T14:28:56;11.50;99.90
74822;DHT22;63353;48.702;8.884;2022-12-29T14:31:33;11.20;99.90
74822;DHT22;63353;48.702;8.884;2022-12-29T14:36:58;10.60;99.90
74822;DHT22;63353;48.702;8.884;2022-12-29T14:39:40;10.60;99.90
74822;DHT22;63353;48.702;8.884;2022-12-29T14:42:11;10.30;99.90
74822;DHT22;63353;48.702;8.884;2022-12-29T14:44:58;10.30;99.90
74822;DHT22;63353;48.702;8.884;2022-12-29T14:50:06;10.10;99.90
74822;DHT22;63353;48.702;8.884;2022-12-29T14:52:57;10.10;99.90
74822;DHT22;63353;48.702;8.884;2022-12-29T14:55:55;10.10;99.90
74822;DHT22;63353;48.702;8.884;2022-12-29T15:00:52;9.90;99.90
74822;DHT22;63353;48.702;8.884;2022-12-29T15:03:43;9.90;99.90
74822;DHT22;63353;48.702;8.884;2022-12-29T15:06:11;9.90;99.90
74822;DHT22;63353;48.702;8.884;2022-12-29T15:08:42;9.80;99.90
74822;DHT22;63353;48.702;8.884;2022-12-29T15:11:21;9.90;99.90
74822;DHT22;63353;48.702;8.884;2022-12-29T15:13:53;9.90;99.90
74822;DHT22;63353;48.702;8.884;2022-12-29T15:16:30;9.90;99.90
74822;DHT22;63353;48.702;8.884;2022-12-29T15:18:57;9.80;99.90
74822;DHT22;63353;48.702;8.884;2022-12-29T15:21:32;9.80;99.90
74822;DHT22;63353;48.702;8.884;2022-12-29T15:23:58;9.90;99.90
74822;DHT22;63353;48.702;8.884;2022-12-29T15:26:40;9.90;99.90
74822;DHT22;63353;48.702;8.884;2022-12-29T15:29:40;9.80;99.90
74822;DHT22;63353;48.702;8.884;2022-12-29T15:34:41;9.80;99.90
74822;DHT22;63353;48.702;8.884;2022-12-29T15:37:07;9.80;99.90
74822;DHT22;63353;48.702;8.884;2022-12-29T15:39:36;9.70;99.90
74822;DHT22;63353;48.702;8.884;2022-12-29T15:44:49;9.70;99.90
74822;DHT22;63353;48.702;8.884;2022-12-29T15:47:20;9.70;99.90
74822;DHT22;63353;48.702;8.884;2022-12-29T15:49:53;9.50;99.90
74822;DHT22;63353;48.702;8.884;2022-12-29T15:52:23;9.20;99.90
74822;DHT22;63353;48.702;8.884;2022-12-29T15:54:51;9.00;99.90
74822;DHT22;63353;48.702;8.884;2022-12-29T15:57:27;8.60;99.90
74822;DHT22;63353;48.702;8.884;2022-12-29T15:59:53;8.40;99.90
74822;DHT22;63353;48.702;8.884;2022-12-29T16:02:21;8.30;99.90
74822;DHT22;63353;48.702;8.884;2022-12-29T16:04:48;8.10;99.90
74822;DHT22;63353;48.702;8.884;2022-12-29T16:07:29;8.00;99.90
74822;DHT22;63353;48.702;8.884;2022-12-29T16:09:57;7.90;99.90
74822;DHT22;63353;48.702;8.884;2022-12-29T16:17:50;7.80;99.90
74822;DHT22;63353;48.702;8.884;2022-12-29T16:20:24;7.70;99.90
74822;DHT22;63353;48.702;8.884;2022-12-29T16:22:57;7.80;99.90
74822;DHT22;63353;48.702;8.884;2022-12-29T16:25:34;7.80;99.90
74822;DHT22;63353;48.702;8.884;2022-12-29T16:28:18;7.70;99.90
74822;DHT22;63353;48.702;8.884;2022-12-29T16:30:44;7.70;99.90
74822;DHT22;63353;48.702;8.884;2022-12-29T16:33:43;7.60;99.90
74822;DHT22;63353;48.702;8.884;2022-12-29T16:36:30;7.60;99.90
74822;DHT22;63353;48.702;8.884;2022-12-29T16:39:20;7.60;99.90
74822;DHT22;63353;48.702;8.884;2022-12-29T16:41:48;7.60;99.90
74822;DHT22;63353;48.702;8.884;2022-12-29T16:44:40;7.50;99.90
74822;DHT22;63353;48.702;8.884;2022-12-29T16:49:35;7.50;99.90
74822;DHT22;63353;48.702;8.884;2022-12-29T16:52:17;7.50;99.90
74822;DHT22;63353;48.702;8.884;2022-12-29T16:54:52;7.50;99.90
74822;DHT22;63353;48.702;8.884;2022-12-29T16:57:26;7.50;99.90
74822;DHT22;63353;48.702;8.884;2022-12-29T16:59:55;7.50;99.90
74822;DHT22;63353;48.702;8.884;2022-12-29T17:02:25;7.50;99.90
74822;DHT22;63353;48.702;8.884;2022-12-29T17:04:51;7.50;99.90
74822;DHT22;63353;48.702;8.884;2022-12-29T17:07:23;7.50;99.90
74822;DHT22;63353;48.702;8.884;2022-12-29T17:09:49;7.50;99.90
74822;DHT22;63353;48.702;8.884;2022-12-29T17:12:27;7.50;99.90
74822;DHT22;63353;48.702;8.884;2022-12-29T17:14:59;7.40;99.90
74822;DHT22;63353;48.702;8.884;2022-12-29T17:17:33;7.40;99.90
74822;DHT22;63353;48.702;8.884;2022-12-29T17:22:43;7.40;99.90
74822;DHT22;63353;48.702;8.884;2022-12-29T17:25:20;7.50;99.90
74822;DHT22;63353;48.702;8.884;2022-12-29T17:27:55;7.40;99.90
74822;DHT22;63353;48.702;8.884;2022-12-29T17:30:24;7.30;99.90
74822;DHT22;63353;48.702;8.884;2022-12-29T17:33:09;7.30;99.90
74822;DHT22;63353;48.702;8.884;2022-12-29T17:35:36;7.30;99.90
74822;DHT22;63353;48.702;8.884;2022-12-29T17:38:02;7.20;99.90
74822;DHT22;63353;48.702;8.884;2022-12-29T17:40:30;7.20;99.90
74822;DHT22;63353;48.702;8.884;2022-12-29T17:42:58;7.20;99.90
74822;DHT22;63353;48.702;8.884;2022-12-29T17:45:31;7.20;99.90
74822;DHT22;63353;48.702;8.884;2022-12-29T17:47:57;7.20;99.90
74822;DHT22;63353;48.702;8.884;2022-12-29T17:50:27;7.10;99.90
74822;DHT22;63353;48.702;8.884;2022-12-29T17:53:01;7.20;99.90
74822;DHT22;63353;48.702;8.884;2022-12-29T17:55:28;7.20;99.90
74822;DHT22;63353;48.702;8.884;2022-12-29T17:57:54;7.10;99.90
74822;DHT22;63353;48.702;8.884;2022-12-29T18:00:28;7.10;99.90
74822;DHT22;63353;48.702;8.884;2022-12-29T18:02:57;7.20;99.90
74822;DHT22;63353;48.702;8.884;2022-12-29T18:05:28;7.20;99.90
74822;DHT22;63353;48.702;8.884;2022-12-29T18:07:56;7.20;99.90
74822;DHT22;63353;48.702;8.884;2022-12-29T18:10:25;7.30;99.90
74822;DHT22;63353;48.702;8.884;2022-12-29T18:12:53;7.20;99.90
74822;DHT22;63353;48.702;8.884;2022-12-29T18:15:25;7.20;99.90
74822;DHT22;63353;48.702;8.884;2022-12-29T18:18:08;7.30;99.90
74822;DHT22;63353;48.702;8.884;2022-12-29T18:20:34;7.20;99.90
74822;DHT22;63353;48.702;8.884;2022-12-29T18:23:04;7.20;99.90
74822;DHT22;63353;48.702;8.884;2022-12-29T18:25:42;7.20;99.90
74822;DHT22;63353;48.702;8.884;2022-12-29T18:28:09;7.20;99.90
74822;DHT22;63353;48.702;8.884;2022-12-29T18:30:36;7.20;99.90
74822;DHT22;63353;48.702;8.884;2022-12-29T18:33:02;7.20;99.90
74822;DHT22;63353;48.702;8.884;2022-12-29T18:35:42;7.30;99.90
74822;DHT22;63353;48.702;8.884;2022-12-29T18:38:09;7.20;99.90
74822;DHT22;63353;48.702;8.884;2022-12-29T18:40:37;7.20;99.90
74822;DHT22;63353;48.702;8.884;2022-12-29T18:43:06;7.20;99.90
74822;DHT22;63353;48.702;8.884;2022-12-29T18:45:32;7.20;99.90
74822;DHT22;63353;48.702;8.884;2022-12-29T18:48:01;7.10;99.90
74822;DHT22;63353;48.702;8.884;2022-12-29T18:50:27;7.10;99.90
74822;DHT22;63353;48.702;8.884;2022-12-29T18:52:52;7.00;99.90
74822;DHT22;63353;48.702;8.884;2022-12-29T18:55:23;7.00;99.90